createdAt,value
2018-07-20T00:01:32.118Z,100967.00
2018-07-20T00:04:01.948Z,100965.00
2018-07-20T00:06:31.604Z,100957.00
2018-07-20T00:09:01.228Z,100951.00
2018-07-20T00:11:31.183Z,100948.00
2018-07-20T00:14:01.573Z,100951.00
2018-07-20T00:16:31.752Z,100950.00
2018-07-20T00:19:08.002Z,100946.00
2018-07-20T00:21:37.858Z,100945.00
2018-07-20T00:24:07.721Z,100947.00
2018-07-20T00:26:37.174Z,100936.00
2018-07-20T00:29:07.074Z,100941.00
2018-07-20T00:31:36.832Z,100946.00
2018-07-20T00:34:06.451Z,100937.00
2018-07-20T00:36:36.244Z,100938.00
2018-07-20T00:39:08.288Z,100931.00
2018-07-20T00:41:37.916Z,100936.00
2018-07-20T00:44:07.844Z,100940.00
2018-07-20T00:46:37.698Z,100932.00
2018-07-20T00:49:07.326Z,100935.00
2018-07-20T00:51:37.003Z,100932.00
2018-07-20T00:54:06.770Z,100931.00
2018-07-20T00:56:36.744Z,100927.00
2018-07-20T00:59:06.756Z,100930.00
2018-07-20T01:01:36.498Z,100927.00
2018-07-20T01:04:06.209Z,100930.00
2018-07-20T01:06:36.325Z,100919.00
2018-07-20T01:09:08.636Z,100923.00
2018-07-20T01:11:38.682Z,100924.00
2018-07-20T01:14:08.667Z,100923.00
2018-07-20T01:16:38.618Z,100918.00
2018-07-20T01:19:08.059Z,100917.00
2018-07-20T01:21:37.957Z,100913.00
2018-07-20T01:24:07.869Z,100913.00
2018-07-20T01:26:37.611Z,100909.00
2018-07-20T01:29:07.660Z,100903.00
2018-07-20T01:31:37.770Z,100905.00
2018-07-20T01:34:07.348Z,100905.00
2018-07-20T01:36:36.763Z,100899.00
2018-07-20T01:39:07.785Z,100905.00
2018-07-20T01:41:37.942Z,100903.00
2018-07-20T01:44:07.676Z,100907.00
2018-07-20T01:46:37.774Z,100908.00
2018-07-20T01:49:07.436Z,100909.00
2018-07-20T01:51:37.247Z,100902.00
2018-07-20T01:54:07.230Z,100901.00
2018-07-20T01:56:36.946Z,100891.00
2018-07-20T01:59:07.511Z,100885.00
2018-07-20T02:01:37.250Z,100885.00
2018-07-20T02:04:07.842Z,100879.00
2018-07-20T02:06:37.745Z,100885.00
2018-07-20T02:09:09.436Z,100888.00
2018-07-20T02:11:38.756Z,100882.00
2018-07-20T02:14:08.368Z,100882.00
2018-07-20T02:16:37.920Z,100885.00
2018-07-20T02:19:07.730Z,100878.00
2018-07-20T02:21:37.295Z,100882.00
2018-07-20T02:24:07.037Z,100876.00
2018-07-20T02:26:36.563Z,100867.00
2018-07-20T02:29:06.349Z,100864.00
2018-07-20T02:31:36.187Z,100873.00
2018-07-20T02:34:06.723Z,100860.00
2018-07-20T02:36:36.404Z,100870.00
2018-07-20T02:39:09.143Z,100860.00
2018-07-20T02:41:38.934Z,100875.00
2018-07-20T02:44:09.141Z,100866.00
2018-07-20T02:46:39.142Z,100877.00
2018-07-20T02:49:09.022Z,100872.00
2018-07-20T02:51:38.498Z,100866.00
2018-07-20T02:54:08.043Z,100875.00
2018-07-20T02:56:37.334Z,100868.00
2018-07-20T02:59:06.509Z,100870.00
2018-07-20T03:01:35.993Z,100866.00
2018-07-20T03:04:05.129Z,100866.00
2018-07-20T03:06:34.549Z,100863.00
2018-07-20T03:09:04.346Z,100862.00
2018-07-20T03:11:33.652Z,100862.00
2018-07-20T03:14:02.881Z,100858.00
2018-07-20T03:16:32.025Z,100851.00
2018-07-20T03:19:01.377Z,100859.00
2018-07-20T03:21:30.769Z,100858.00
2018-07-20T03:24:00.267Z,100862.00
2018-07-20T03:26:29.753Z,100869.00
2018-07-20T03:28:59.489Z,100864.00
2018-07-20T03:31:29.009Z,100856.00
2018-07-20T03:33:58.965Z,100860.00
2018-07-20T03:36:28.889Z,100856.00
2018-07-20T03:38:58.833Z,100860.00
2018-07-20T03:41:29.093Z,100867.00
2018-07-20T03:43:59.081Z,100864.00
2018-07-20T03:46:29.187Z,100863.00
2018-07-20T03:48:59.816Z,100861.00
2018-07-20T03:51:30.649Z,100850.00
2018-07-20T03:54:01.220Z,100847.00
2018-07-20T03:56:31.305Z,100844.00
2018-07-20T03:59:01.365Z,100830.00
2018-07-20T04:01:32.249Z,100838.00
2018-07-20T04:04:02.583Z,100837.00
2018-07-20T04:06:32.595Z,100844.00
2018-07-20T04:09:02.966Z,100839.00
2018-07-20T04:11:33.130Z,100843.00
2018-07-20T04:14:03.576Z,100831.00
2018-07-20T04:16:33.607Z,100843.00
2018-07-20T04:19:03.558Z,100837.00
2018-07-20T04:21:34.266Z,100833.00
2018-07-20T04:24:04.819Z,100836.00
2018-07-20T04:26:34.719Z,100838.00
2018-07-20T04:29:05.383Z,100836.00
2018-07-20T04:31:35.525Z,100846.00
2018-07-20T04:34:05.403Z,100850.00
2018-07-20T04:36:35.479Z,100847.00
2018-07-20T04:39:09.201Z,100846.00
2018-07-20T04:41:40.928Z,100838.00
2018-07-20T04:44:11.590Z,100848.00
2018-07-20T04:46:42.263Z,100838.00
2018-07-20T04:49:12.915Z,100830.00
2018-07-20T04:51:43.505Z,100829.00
2018-07-20T04:54:14.175Z,100835.00
2018-07-20T04:56:45.015Z,100837.00
2018-07-20T04:59:15.066Z,100839.00
2018-07-20T05:01:46.131Z,100827.00
2018-07-20T05:04:16.753Z,100830.00
2018-07-20T05:06:46.885Z,100812.00
2018-07-20T05:09:17.161Z,100828.00
2018-07-20T05:11:48.074Z,100820.00
2018-07-20T05:14:18.326Z,100814.00
2018-07-20T05:16:49.347Z,100825.00
2018-07-20T05:19:19.439Z,100817.00
2018-07-20T05:21:49.954Z,100829.00
2018-07-20T05:24:20.923Z,100815.00
2018-07-20T05:26:51.093Z,100821.00
2018-07-20T05:29:21.761Z,100821.00
2018-07-20T05:31:51.971Z,100817.00
2018-07-20T05:34:22.122Z,100818.00
2018-07-20T05:36:52.049Z,100818.00
2018-07-20T05:39:21.933Z,100817.00
2018-07-20T05:41:51.889Z,100808.00
2018-07-20T05:44:22.001Z,100817.00
2018-07-20T05:46:52.751Z,100816.00
2018-07-20T05:49:22.608Z,100814.00
2018-07-20T05:51:53.243Z,100815.00
2018-07-20T05:54:23.119Z,100814.00
2018-07-20T05:56:53.499Z,100813.00
2018-07-20T05:59:24.296Z,100805.00
2018-07-20T06:01:55.071Z,100813.00
2018-07-20T06:04:25.038Z,100821.00
2018-07-20T06:06:55.047Z,100822.00
2018-07-20T06:09:25.060Z,100807.00
2018-07-20T06:11:56.119Z,100797.00
2018-07-20T06:14:27.187Z,100807.00
2018-07-20T06:16:57.431Z,100808.00
2018-07-20T06:19:27.387Z,100803.00
2018-07-20T06:21:57.146Z,100806.00
2018-07-20T06:24:27.061Z,100816.00
2018-07-20T06:26:56.927Z,100806.00
2018-07-20T06:29:26.989Z,100804.00
2018-07-20T06:31:57.469Z,100798.00
2018-07-20T06:34:28.187Z,100800.00
2018-07-20T06:36:58.130Z,100805.00
2018-07-20T06:39:28.351Z,100795.00
2018-07-20T06:41:58.574Z,100804.00
2018-07-20T06:44:28.596Z,100809.00
2018-07-20T06:46:58.593Z,100820.00
2018-07-20T06:49:29.467Z,100810.00
2018-07-20T06:52:00.232Z,100819.00
2018-07-20T06:54:30.145Z,100816.00
2018-07-20T06:57:00.459Z,100821.00
2018-07-20T06:59:30.299Z,100814.00
2018-07-20T07:02:00.270Z,100815.00
2018-07-20T07:04:31.042Z,100822.00
2018-07-20T07:07:01.470Z,100829.00
2018-07-20T07:09:31.899Z,100821.00
2018-07-20T07:12:01.964Z,100823.00
2018-07-20T07:14:31.916Z,100829.00
2018-07-20T07:17:01.832Z,100821.00
2018-07-20T07:19:31.955Z,100828.00
2018-07-20T07:22:02.104Z,100814.00
2018-07-20T07:24:34.154Z,100821.00
2018-07-20T07:27:07.992Z,100817.00
2018-07-20T07:29:38.299Z,100833.00
2018-07-20T07:32:08.780Z,100837.00
2018-07-20T07:34:38.678Z,100839.00
2018-07-20T07:37:09.560Z,100837.00
2018-07-20T07:39:40.783Z,100834.00
2018-07-20T07:42:11.367Z,100824.00
2018-07-20T07:44:41.834Z,100829.00
2018-07-20T07:47:12.064Z,100830.00
2018-07-20T07:49:42.274Z,100821.00
2018-07-20T07:52:12.008Z,100824.00
2018-07-20T07:54:42.072Z,100827.00
2018-07-20T07:57:12.016Z,100823.00
2018-07-20T07:59:42.311Z,100820.00
2018-07-20T08:02:12.604Z,100818.00
2018-07-20T08:04:43.214Z,100811.00
2018-07-20T08:07:13.646Z,100809.00
2018-07-20T08:09:44.022Z,100814.00
2018-07-20T08:12:14.306Z,100813.00
2018-07-20T08:14:44.863Z,100815.00
2018-07-20T08:17:15.148Z,100808.00
2018-07-20T08:19:45.072Z,100811.00
2018-07-20T08:22:15.147Z,100810.00
2018-07-20T08:24:45.304Z,100808.00
2018-07-20T08:27:15.158Z,100813.00
2018-07-20T08:29:45.080Z,100807.00
2018-07-20T08:32:14.702Z,100804.00
2018-07-20T08:34:45.110Z,100798.00
2018-07-20T08:37:14.846Z,100799.00
2018-07-20T08:39:45.649Z,100803.00
2018-07-20T08:42:15.898Z,100796.00
2018-07-20T08:44:45.621Z,100797.00
2018-07-20T08:47:15.654Z,100790.00
2018-07-20T08:49:46.204Z,100793.00
2018-07-20T08:52:16.954Z,100790.00
2018-07-20T08:54:47.151Z,100794.00
2018-07-20T08:57:16.909Z,100797.00
2018-07-20T08:59:47.029Z,100801.00
2018-07-20T09:02:17.188Z,100795.00
2018-07-20T09:04:47.893Z,100796.00
2018-07-20T09:07:18.968Z,100781.00
2018-07-20T09:09:49.205Z,100782.00
2018-07-20T09:12:19.120Z,100790.00
2018-07-20T09:14:49.162Z,100776.00
2018-07-20T09:17:19.407Z,100780.00
2018-07-20T09:19:50.205Z,100775.00
2018-07-20T09:22:20.246Z,100777.00
2018-07-20T09:24:49.935Z,100779.00
2018-07-20T09:27:19.565Z,100772.00
2018-07-20T09:29:49.763Z,100774.00
2018-07-20T09:32:20.385Z,100769.00
2018-07-20T09:34:50.121Z,100774.00
2018-07-20T09:37:19.747Z,100777.00
2018-07-20T09:39:49.603Z,100773.00
2018-07-20T09:42:19.365Z,100774.00
2018-07-20T09:44:49.321Z,100757.00
2018-07-20T09:47:19.369Z,100755.00
2018-07-20T09:49:50.274Z,100764.00
2018-07-20T09:52:20.195Z,100758.00
2018-07-20T09:54:49.858Z,100757.00
2018-07-20T09:57:19.858Z,100756.00
2018-07-20T09:59:50.909Z,100755.00
2018-07-20T10:02:21.095Z,100748.00
2018-07-20T10:04:51.350Z,100746.00
2018-07-20T10:07:24.459Z,100747.00
2018-07-20T10:09:55.092Z,100754.00
2018-07-20T10:12:25.653Z,100754.00
2018-07-20T10:14:55.833Z,100761.00
2018-07-20T10:17:25.709Z,100753.00
2018-07-20T10:19:55.631Z,100754.00
2018-07-20T10:22:25.538Z,100750.00
2018-07-20T10:24:55.197Z,100749.00
2018-07-20T10:27:25.105Z,100755.00
2018-07-20T10:29:54.708Z,100747.00
2018-07-20T10:32:24.720Z,100749.00
2018-07-20T10:34:57.667Z,100744.00
2018-07-20T10:37:28.741Z,100736.00
2018-07-20T10:39:58.675Z,100737.00
2018-07-20T10:42:28.850Z,100744.00
2018-07-20T10:45:01.478Z,100741.00
2018-07-20T10:47:32.428Z,100744.00
2018-07-20T10:50:03.201Z,100732.00
2018-07-20T10:52:33.242Z,100736.00
2018-07-20T10:55:03.171Z,100743.00
2018-07-20T10:57:32.687Z,100750.00
2018-07-20T11:00:02.221Z,100734.00
2018-07-20T11:02:33.094Z,100740.00
2018-07-20T11:05:03.100Z,100743.00
2018-07-20T11:07:33.097Z,100734.00
2018-07-20T11:10:03.220Z,100736.00
2018-07-20T11:12:33.164Z,100731.00
2018-07-20T11:15:02.733Z,100725.00
2018-07-20T11:17:32.497Z,100717.00
2018-07-20T11:20:02.234Z,100726.00
2018-07-20T11:22:31.937Z,100725.00
2018-07-20T11:25:02.337Z,100727.00
2018-07-20T11:27:32.534Z,100725.00
2018-07-20T11:30:02.249Z,100717.00
2018-07-20T11:32:33.682Z,100707.00
2018-07-20T11:35:04.177Z,100715.00
2018-07-20T11:37:34.127Z,100714.00
2018-07-20T11:40:04.384Z,100713.00
2018-07-20T11:42:34.547Z,100707.00
2018-07-20T11:45:04.499Z,100715.00
2018-07-20T11:47:34.482Z,100704.00
2018-07-20T11:50:05.066Z,100712.00
2018-07-20T11:52:34.806Z,100704.00
2018-07-20T11:55:04.648Z,100704.00
2018-07-20T11:57:35.806Z,100700.00
2018-07-20T12:00:05.858Z,100701.00
2018-07-20T12:02:35.613Z,100699.00
2018-07-20T12:05:06.540Z,100696.00
2018-07-20T12:07:36.965Z,100696.00
2018-07-20T12:10:06.862Z,100692.00
2018-07-20T12:12:37.208Z,100695.00
2018-07-20T12:15:07.515Z,100703.00
2018-07-20T12:17:37.685Z,100683.00
2018-07-20T12:20:07.161Z,100684.00
2018-07-20T12:22:37.250Z,100679.00
2018-07-20T12:25:06.957Z,100676.00
2018-07-20T12:27:37.083Z,100668.00
2018-07-20T12:30:07.171Z,100671.00
2018-07-20T12:32:37.128Z,100667.00
2018-07-20T12:35:07.665Z,100673.00
2018-07-20T12:37:37.969Z,100674.00
2018-07-20T12:40:08.256Z,100665.00
2018-07-20T12:42:38.552Z,100664.00
2018-07-20T12:45:08.655Z,100671.00
2018-07-20T12:47:39.008Z,100658.00
2018-07-20T12:50:09.612Z,100657.00
2018-07-20T12:52:39.896Z,100655.00
2018-07-20T12:55:09.903Z,100652.00
2018-07-20T12:57:39.632Z,100644.00
2018-07-20T13:00:10.036Z,100647.00
2018-07-20T13:02:40.187Z,100643.00
2018-07-20T13:05:10.091Z,100647.00
2018-07-20T13:07:39.724Z,100640.00
2018-07-20T13:10:09.555Z,100634.00
2018-07-20T13:12:40.540Z,100635.00
2018-07-20T13:15:10.332Z,100637.00
2018-07-20T13:17:43.875Z,100637.00
2018-07-20T13:20:13.783Z,100622.00
2018-07-20T13:22:44.177Z,100619.00
2018-07-20T13:25:14.529Z,100616.00
2018-07-20T13:27:44.728Z,100616.00
2018-07-20T13:30:15.183Z,100613.00
2018-07-20T13:32:45.235Z,100613.00
2018-07-20T13:35:15.719Z,100607.00
2018-07-20T13:37:45.907Z,100605.00
2018-07-20T13:40:15.995Z,100596.00
2018-07-20T13:42:45.857Z,100600.00
2018-07-20T13:45:15.953Z,100608.00
2018-07-20T13:47:45.609Z,100595.00
2018-07-20T13:50:15.179Z,100599.00
2018-07-20T13:52:44.827Z,100596.00
2018-07-20T13:55:14.469Z,100590.00
2018-07-20T13:57:44.714Z,100579.00
2018-07-20T14:00:14.693Z,100575.00
2018-07-20T14:02:44.527Z,100589.00
2018-07-20T14:05:14.780Z,100588.00
2018-07-20T14:07:44.803Z,100580.00
2018-07-20T14:10:15.118Z,100578.00
2018-07-20T14:12:44.801Z,100582.00
2018-07-20T14:15:14.668Z,100577.00
2018-07-20T14:17:44.609Z,100567.00
2018-07-20T14:20:15.800Z,100569.00
2018-07-20T14:22:45.963Z,100571.00
2018-07-20T14:25:16.419Z,100568.00
2018-07-20T14:27:47.021Z,100565.00
2018-07-20T14:30:17.456Z,100574.00
2018-07-20T14:32:47.303Z,100562.00
2018-07-20T14:35:17.371Z,100556.00
2018-07-20T14:37:47.508Z,100555.00
2018-07-20T14:40:17.418Z,100557.00
2018-07-20T14:42:47.788Z,100557.00
2018-07-20T14:45:17.950Z,100549.00
2018-07-20T14:47:48.172Z,100556.00
2018-07-20T14:50:18.281Z,100555.00
2018-07-20T14:52:48.747Z,100549.00
2018-07-20T14:55:19.049Z,100554.00
2018-07-20T14:57:49.229Z,100545.00
2018-07-20T15:00:19.683Z,100548.00
2018-07-20T15:02:49.609Z,100540.00
2018-07-20T15:05:19.401Z,100539.00
2018-07-20T15:07:49.429Z,100530.00
2018-07-20T15:10:19.627Z,100536.00
2018-07-20T15:12:49.517Z,100533.00
2018-07-20T15:15:20.054Z,100526.00
2018-07-20T15:17:49.677Z,100527.00
2018-07-20T15:20:19.455Z,100526.00
2018-07-20T15:22:49.617Z,100524.00
2018-07-20T15:25:19.600Z,100528.00
2018-07-20T15:27:49.905Z,100519.00
2018-07-20T15:30:20.275Z,100514.00
2018-07-20T15:32:50.163Z,100515.00
2018-07-20T15:35:20.060Z,100518.00
2018-07-20T15:37:50.029Z,100509.00
2018-07-20T15:40:20.025Z,100502.00
2018-07-20T15:42:50.061Z,100497.00
2018-07-20T15:45:19.735Z,100499.00
2018-07-20T15:47:49.963Z,100496.00
2018-07-20T15:50:19.777Z,100497.00
2018-07-20T15:55:19.839Z,100487.00
2018-07-20T15:57:49.583Z,100486.00
2018-07-20T16:00:20.261Z,100488.00
2018-07-20T16:02:49.725Z,100489.00
2018-07-20T16:05:19.949Z,100483.00
2018-07-20T16:07:50.069Z,100485.00
2018-07-20T16:10:20.013Z,100487.00
2018-07-20T16:12:49.987Z,100474.00
2018-07-20T16:15:19.583Z,100475.00
2018-07-20T16:17:50.359Z,100468.00
2018-07-20T16:20:20.048Z,100473.00
2018-07-20T16:22:49.940Z,100472.00
2018-07-20T16:25:19.943Z,100472.00
2018-07-20T16:27:50.043Z,100477.00
2018-07-20T16:30:22.451Z,100472.00
2018-07-20T16:32:52.161Z,100474.00
2018-07-20T16:35:22.255Z,100475.00
2018-07-20T16:37:52.507Z,100478.00
2018-07-20T16:40:24.435Z,100470.00
2018-07-20T16:42:54.349Z,100468.00
2018-07-20T16:45:24.701Z,100473.00
2018-07-20T16:47:55.704Z,100473.00
2018-07-20T16:50:25.322Z,100463.00
2018-07-20T16:52:55.200Z,100462.00
2018-07-20T16:55:24.880Z,100460.00
2018-07-20T16:57:55.122Z,100451.00
2018-07-20T17:00:25.784Z,100443.00
2018-07-20T17:02:56.305Z,100448.00
2018-07-20T17:05:26.452Z,100447.00
2018-07-20T17:07:56.410Z,100447.00
2018-07-20T17:10:27.136Z,100450.00
2018-07-20T17:12:57.560Z,100450.00
2018-07-20T17:15:33.290Z,100450.00
2018-07-20T17:18:05.004Z,100448.00
2018-07-20T17:20:36.069Z,100450.00
2018-07-20T17:23:06.441Z,100444.00
2018-07-20T17:25:37.152Z,100445.00
2018-07-20T17:28:08.486Z,100443.00
2018-07-20T17:30:39.027Z,100431.00
2018-07-20T17:33:09.479Z,100439.00
2018-07-20T17:35:39.761Z,100443.00
2018-07-20T17:38:09.528Z,100441.00
2018-07-20T17:40:40.073Z,100434.00
2018-07-20T17:43:10.007Z,100446.00
2018-07-20T17:45:40.337Z,100439.00
2018-07-20T17:48:10.146Z,100431.00
2018-07-20T17:50:40.306Z,100436.00
2018-07-20T17:53:11.021Z,100433.00
2018-07-20T17:55:41.635Z,100435.00
2018-07-20T17:58:12.279Z,100431.00
2018-07-20T18:00:42.413Z,100437.00
2018-07-20T18:03:12.524Z,100426.00
2018-07-20T18:05:42.572Z,100433.00
2018-07-20T18:08:12.410Z,100435.00
2018-07-20T18:10:42.400Z,100424.00
2018-07-20T18:13:12.232Z,100425.00
2018-07-20T18:15:42.265Z,100427.00
2018-07-20T18:18:12.706Z,100418.00
2018-07-20T18:20:42.368Z,100421.00
2018-07-20T18:23:13.160Z,100420.00
2018-07-20T18:25:43.268Z,100409.00
2018-07-20T18:28:13.370Z,100409.00
2018-07-20T18:30:43.671Z,100411.00
2018-07-20T18:33:16.836Z,100414.00
2018-07-20T18:35:46.649Z,100413.00
2018-07-20T18:38:17.680Z,100417.00
2018-07-20T18:40:48.910Z,100413.00
2018-07-20T18:43:19.752Z,100410.00
2018-07-20T18:45:50.030Z,100423.00
2018-07-20T18:48:20.148Z,100420.00
2018-07-20T18:50:50.192Z,100413.00
2018-07-20T18:53:20.382Z,100420.00
2018-07-20T18:55:51.105Z,100415.00
2018-07-20T18:58:21.482Z,100415.00
2018-07-20T19:00:52.197Z,100421.00
2018-07-20T19:03:22.209Z,100423.00
2018-07-20T19:05:52.258Z,100420.00
2018-07-20T19:08:22.054Z,100425.00
2018-07-20T19:10:52.380Z,100420.00
2018-07-20T19:13:22.159Z,100416.00
2018-07-20T19:15:52.054Z,100421.00
2018-07-20T19:18:21.903Z,100419.00
2018-07-20T19:20:52.152Z,100415.00
2018-07-20T19:23:21.971Z,100416.00
2018-07-20T19:25:52.470Z,100428.00
2018-07-20T19:28:21.846Z,100439.00
2018-07-20T19:30:51.154Z,100430.00
2018-07-20T19:33:20.336Z,100446.00
2018-07-20T19:35:49.553Z,100453.00
2018-07-20T19:38:18.976Z,100445.00
2018-07-20T19:40:48.222Z,100454.00
2018-07-20T19:43:17.612Z,100454.00
2018-07-20T19:45:46.650Z,100451.00
2018-07-20T19:48:16.062Z,100452.00
2018-07-20T19:50:45.364Z,100460.00
2018-07-20T19:53:14.491Z,100458.00
2018-07-20T19:55:43.865Z,100466.00
2018-07-20T19:58:13.202Z,100468.00
2018-07-20T20:00:43.068Z,100469.00
2018-07-20T20:03:12.121Z,100465.00
2018-07-20T20:05:41.247Z,100472.00
2018-07-20T20:08:10.525Z,100470.00
2018-07-20T20:10:39.751Z,100474.00
2018-07-20T20:13:09.163Z,100466.00
2018-07-20T20:15:38.668Z,100477.00
2018-07-20T20:18:08.417Z,100480.00
2018-07-20T20:20:37.710Z,100481.00
2018-07-20T20:23:07.486Z,100488.00
2018-07-20T20:25:37.225Z,100489.00
2018-07-20T20:28:06.945Z,100489.00
2018-07-20T20:30:36.743Z,100492.00
2018-07-20T20:33:06.626Z,100491.00
2018-07-20T20:35:36.451Z,100487.00
2018-07-20T20:38:05.888Z,100492.00
2018-07-20T20:40:35.884Z,100499.00
2018-07-20T20:43:05.803Z,100498.00
2018-07-20T20:45:35.499Z,100486.00
2018-07-20T20:48:06.212Z,100494.00
2018-07-20T20:50:35.788Z,100494.00
2018-07-20T20:53:05.493Z,100498.00
2018-07-20T20:55:34.852Z,100501.00
2018-07-20T20:58:04.727Z,100493.00
2018-07-20T21:00:34.211Z,100490.00
2018-07-20T21:03:04.075Z,100493.00
2018-07-20T21:05:33.409Z,100498.00
2018-07-20T21:08:02.773Z,100504.00
2018-07-20T21:10:32.247Z,100497.00
2018-07-20T21:13:01.815Z,100500.00
2018-07-20T21:15:31.476Z,100484.00
2018-07-20T21:18:01.105Z,100492.00
2018-07-20T21:20:30.505Z,100484.00
2018-07-20T21:23:00.668Z,100491.00
2018-07-20T21:25:30.524Z,100489.00
2018-07-20T21:28:00.389Z,100499.00
2018-07-20T21:30:29.736Z,100492.00
2018-07-20T21:32:59.104Z,100494.00
2018-07-20T21:35:28.718Z,100485.00
2018-07-20T21:37:58.110Z,100489.00
2018-07-20T21:40:28.140Z,100490.00
2018-07-20T21:42:57.664Z,100485.00
2018-07-20T21:45:27.607Z,100488.00
2018-07-20T21:47:57.243Z,100484.00
2018-07-20T21:50:26.786Z,100479.00
2018-07-20T21:52:58.861Z,100478.00
2018-07-20T21:55:28.451Z,100481.00
2018-07-20T21:57:58.264Z,100481.00
2018-07-20T22:00:28.392Z,100477.00
2018-07-20T22:02:57.920Z,100476.00
2018-07-20T22:05:27.561Z,100476.00
2018-07-20T22:07:59.157Z,100480.00
2018-07-20T22:10:29.829Z,100494.00
2018-07-20T22:12:59.363Z,100493.00
2018-07-20T22:15:29.005Z,100488.00
2018-07-20T22:17:58.541Z,100491.00
2018-07-20T22:20:28.787Z,100488.00
2018-07-20T22:22:58.823Z,100492.00
2018-07-20T22:25:28.686Z,100480.00
2018-07-20T22:27:58.196Z,100491.00
2018-07-20T22:30:28.163Z,100495.00
2018-07-20T22:32:57.637Z,100495.00
2018-07-20T22:35:27.194Z,100504.00
2018-07-20T22:37:56.835Z,100498.00
2018-07-20T22:40:26.739Z,100501.00
2018-07-20T22:42:56.819Z,100502.00
2018-07-20T22:45:26.278Z,100499.00
2018-07-20T22:47:56.016Z,100509.00
2018-07-20T22:50:25.896Z,100511.00
2018-07-20T22:52:56.167Z,100506.00
2018-07-20T22:55:26.005Z,100505.00
2018-07-20T22:57:55.568Z,100502.00
2018-07-20T23:00:25.749Z,100498.00
2018-07-20T23:02:55.567Z,100505.00
2018-07-20T23:05:25.257Z,100503.00
2018-07-20T23:07:55.118Z,100504.00
2018-07-20T23:10:24.785Z,100505.00
2018-07-20T23:12:54.251Z,100493.00
2018-07-20T23:15:24.257Z,100497.00
2018-07-20T23:17:53.875Z,100502.00
2018-07-20T23:20:23.297Z,100498.00
2018-07-20T23:22:53.045Z,100501.00
2018-07-20T23:25:22.905Z,100497.00
2018-07-20T23:27:52.255Z,100506.00
2018-07-20T23:30:21.677Z,100508.00
2018-07-20T23:32:51.041Z,100505.00
2018-07-20T23:35:20.813Z,100517.00
2018-07-20T23:37:50.577Z,100509.00
2018-07-20T23:40:20.161Z,100515.00
2018-07-20T23:42:50.045Z,100512.00
2018-07-20T23:45:19.456Z,100500.00
2018-07-20T23:47:49.251Z,100505.00
2018-07-20T23:50:18.585Z,100493.00
2018-07-20T23:52:48.325Z,100499.00
2018-07-20T23:55:18.231Z,100492.00
2018-07-20T23:57:48.330Z,100501.00
